Time;durP1;ratioP1;P1;durP2;ratioP2;P2;SDS_P1;SDS_P2;PMS_P1;PMS_P2;Temp;Humidity;BMP_temperature;BMP_pressure;BME280_temperature;BME280_humidity;BME280_pressure;Samples;Min_cycle;Max_cycle;Signal;HPM_P1;HPM_P2
2021/11/04 00:02:07;;;;;;;13.20;2.53;;;;;;;17.55;37.10;101645.31;5034007;28;20403;-72
2021/11/04 00:04:33;;;;;;;7.22;1.60;;;;;;;17.58;37.21;101639.09;5016194;28;20034;-72
2021/11/04 00:06:58;;;;;;;7.57;1.98;;;;;;;17.57;37.36;101644.97;5033859;28;20037;-72
2021/11/04 00:09:24;;;;;;;13.13;2.97;;;;;;;17.61;37.19;101652.25;5033813;28;20061;-72
2021/11/04 00:11:51;;;;;;;10.82;2.75;;;;;;;17.68;37.27;101654.44;5016075;28;20036;-72
2021/11/04 00:14:16;;;;;;;8.40;2.35;;;;;;;17.68;37.06;101655.28;5033813;28;20033;-72
2021/11/04 00:16:42;;;;;;;7.25;2.38;;;;;;;17.74;37.24;101653.13;5015719;28;20029;-72
2021/11/04 00:19:08;;;;;;;6.90;1.80;;;;;;;17.74;37.21;101658.66;5032278;28;20025;-74
2021/11/04 00:21:33;;;;;;;8.90;2.38;;;;;;;17.55;37.43;101666.63;5033242;28;20091;-72
2021/11/04 00:23:59;;;;;;;8.75;2.85;;;;;;;17.62;37.48;101655.81;5033621;28;20051;-72
2021/11/04 00:26:25;;;;;;;5.65;2.08;;;;;;;17.69;37.17;101650.56;5033545;28;20071;-72
2021/11/04 00:28:52;;;;;;;7.80;2.30;;;;;;;17.68;37.38;101657.22;5033475;28;20034;-73
2021/11/04 00:31:18;;;;;;;5.72;2.00;;;;;;;17.57;37.56;101653.25;5033418;28;20026;-72
2021/11/04 00:33:44;;;;;;;11.65;2.72;;;;;;;17.77;37.21;101655.22;5033410;28;20078;-72
2021/11/04 00:36:09;;;;;;;9.80;2.80;;;;;;;17.70;37.21;101658.53;5033138;28;20029;-72
2021/11/04 00:38:35;;;;;;;6.28;1.83;;;;;;;17.80;36.90;101656.50;5033334;28;20116;-72
2021/11/04 00:41:01;;;;;;;8.30;1.83;;;;;;;17.80;37.03;101656.50;5033199;28;20590;-72
2021/11/04 00:43:26;;;;;;;9.32;1.90;;;;;;;17.75;37.06;101666.59;5015465;28;20036;-72
2021/11/04 00:45:52;;;;;;;7.45;1.70;;;;;;;17.77;36.84;101655.22;5033127;28;20032;-72
2021/11/04 00:48:18;;;;;;;8.85;2.00;;;;;;;17.68;37.14;101676.56;5033065;28;20060;-72
2021/11/04 00:50:44;;;;;;;4.57;1.80;;;;;;;17.75;36.83;101672.13;5033091;28;20060;-72
2021/11/04 00:53:09;;;;;;;9.60;2.00;;;;;;;17.76;36.91;101664.66;5033060;28;20025;-72
2021/11/04 00:55:35;;;;;;;7.13;2.00;;;;;;;17.81;36.59;101660.88;5015215;28;20033;-72
2021/11/04 00:58:00;;;;;;;9.52;1.90;;;;;;;17.82;36.89;101660.53;5032668;28;20115;-72
2021/11/04 01:00:26;;;;;;;4.75;1.63;;;;;;;17.90;36.60;101667.13;5014830;28;20360;-72
2021/11/04 01:02:52;;;;;;;4.90;1.73;;;;;;;17.80;36.85;101668.34;5032869;28;20067;-72
2021/11/04 01:05:17;;;;;;;5.63;1.55;;;;;;;17.80;36.77;101656.50;5032839;28;20452;-73
2021/11/04 01:07:43;;;;;;;6.95;1.85;;;;;;;17.77;36.77;101668.25;5032545;28;20033;-72
2021/11/04 01:10:09;;;;;;;8.63;2.13;;;;;;;17.51;37.08;101669.22;5032925;28;20025;-72
2021/11/04 01:12:35;;;;;;;8.43;1.92;;;;;;;17.65;36.83;101677.25;5015086;28;20041;-72
2021/11/04 01:15:02;;;;;;;8.65;2.33;;;;;;;17.62;36.46;101678.75;5015085;28;20076;-72
2021/11/04 01:17:28;;;;;;;7.38;1.95;;;;;;;17.52;36.89;101683.84;5015171;28;20072;-72
2021/11/04 01:19:53;;;;;;;6.68;1.85;;;;;;;17.30;37.16;101680.25;5014872;28;20053;-72
2021/11/04 01:22:20;;;;;;;8.10;2.03;;;;;;;17.20;37.22;101677.91;5032286;28;20088;-72
2021/11/04 01:24:46;;;;;;;8.48;3.45;;;;;;;16.97;37.54;101679.34;5032614;28;20021;-72
2021/11/04 01:27:11;;;;;;;7.20;1.73;;;;;;;16.95;37.24;101674.16;5032567;28;20100;-72
2021/11/04 01:29:37;;;;;;;6.55;2.28;;;;;;;16.89;37.32;101672.72;5032457;28;20021;-72
2021/11/04 01:32:03;;;;;;;6.15;1.88;;;;;;;16.94;37.17;101663.47;5032473;28;20053;-72
2021/11/04 01:34:28;;;;;;;12.10;1.95;;;;;;;16.86;37.38;101665.13;5032380;28;20048;-72
2021/11/04 01:36:54;;;;;;;8.98;2.80;;;;;;;16.71;37.40;101665.69;5032314;28;20028;-72
2021/11/04 01:39:20;;;;;;;10.75;2.15;;;;;;;16.61;37.68;101659.34;5032396;28;20018;-72
2021/11/04 01:41:45;;;;;;;6.35;2.22;;;;;;;16.65;37.34;101663.09;5032330;28;20064;-72
2021/11/04 01:44:11;;;;;;;6.03;2.03;;;;;;;16.45;37.93;101666.56;5032423;28;20026;-72
2021/11/04 01:46:37;;;;;;;11.65;2.20;;;;;;;16.42;38.01;101675.50;5014632;28;20021;-73
2021/11/04 01:49:03;;;;;;;4.85;2.38;;;;;;;16.40;37.93;101666.75;5032270;28;20026;-72
2021/11/04 01:51:28;;;;;;;9.25;2.55;;;;;;;16.14;38.45;101671.53;5032233;28;20025;-72
2021/11/04 01:53:54;;;;;;;4.88;1.80;;;;;;;16.28;37.97;101666.63;5032248;28;20022;-73
2021/11/04 01:56:19;;;;;;;10.85;2.30;;;;;;;16.40;37.70;101665.94;5014289;28;20406;-72
2021/11/04 01:58:45;;;;;;;8.73;2.00;;;;;;;16.40;37.80;101666.75;5014670;28;20066;-72
2021/11/04 02:01:11;;;;;;;4.53;1.70;;;;;;;16.42;37.67;101661.72;5032177;28;20029;-72
2021/11/04 02:04:01;;;;;;;7.53;1.77;;;;;;;16.31;38.04;101665.97;5032407;28;20075;-72
2021/11/04 02:06:59;;;;;;;7.10;1.85;;;;;;;16.43;38.01;101665.28;5032181;28;20033;-72
2021/11/04 02:09:29;;;;;;;5.32;2.10;;;;;;;16.50;38.04;101674.66;5032414;28;20025;-72
2021/11/04 02:12:01;;;;;;;6.38;2.25;;;;;;;16.59;37.78;101671.88;5018350;28;20030;-72
2021/11/04 02:14:33;;;;;;;10.10;2.03;;;;;;;16.70;37.85;101672.34;5036179;28;20041;-72
2021/11/04 02:17:00;;;;;;;7.05;1.90;;;;;;;16.71;38.07;101672.03;5036020;28;20104;-72
2021/11/04 02:19:49;;;;;;;5.28;1.98;;;;;;;16.80;37.77;101685.78;5018233;28;20399;-72
2021/11/04 02:22:48;;;;;;;9.65;2.17;;;;;;;16.99;37.65;101682.56;5035598;28;20038;-73
2021/11/04 02:25:19;;;;;;;6.30;2.07;;;;;;;17.05;37.58;101682.06;5035911;28;20021;-72
2021/11/04 02:27:52;;;;;;;6.40;2.13;;;;;;;17.09;37.46;101691.31;5035729;28;20051;-73
2021/11/04 02:30:19;;;;;;;4.13;1.60;;;;;;;17.09;37.49;101684.97;5032907;28;20033;-72
2021/11/04 02:32:45;;;;;;;6.60;1.60;;;;;;;17.09;37.49;101685.78;5035700;28;20060;-72
2021/11/04 02:35:11;;;;;;;6.05;1.80;;;;;;;17.04;37.79;101694.25;5035674;28;20029;-72
2021/11/04 02:37:38;;;;;;;4.38;1.98;;;;;;;17.10;37.86;101678.31;5035569;28;20037;-74
2021/11/04 02:40:05;;;;;;;5.88;1.83;;;;;;;16.95;37.91;101689.94;5035450;28;20025;-77
2021/11/04 02:42:31;;;;;;;7.60;2.42;;;;;;;16.92;38.10;101681.16;5034786;28;20455;-75
2021/11/04 02:44:57;;;;;;;4.97;1.40;;;;;;;17.25;37.50;101686.00;5017659;28;20064;-75
2021/11/04 02:47:23;;;;;;;4.60;1.42;;;;;;;17.10;37.79;101690.16;5035424;28;20029;-75
2021/11/04 02:49:52;;;;;;;6.53;1.70;;;;;;;17.20;37.81;101688.94;5035443;28;20037;-75
2021/11/04 02:52:17;;;;;;;3.30;1.52;;;;;;;17.20;37.82;101698.03;5035375;28;20030;-75
2021/11/04 02:54:53;;;;;;;6.00;1.50;;;;;;;17.24;37.66;101700.16;5017486;28;20025;-75
2021/11/04 02:57:19;;;;;;;4.05;1.50;;;;;;;17.12;37.81;101704.44;5035327;28;20022;-75
2021/11/04 02:59:47;;;;;;;5.97;1.60;;;;;;;17.20;37.77;101700.81;5035184;28;20033;-74
2021/11/04 03:02:13;;;;;;;5.30;1.35;;;;;;;17.24;37.80;101711.19;5035031;28;20037;-75
2021/11/04 03:04:39;;;;;;;3.65;1.17;;;;;;;17.27;37.63;101705.81;5035078;28;20446;-75
2021/11/04 03:07:05;;;;;;;4.22;1.50;;;;;;;17.30;37.94;101715.38;5035066;28;20029;-75
2021/11/04 03:09:31;;;;;;;4.43;1.95;;;;;;;17.26;37.85;101703.38;5035027;28;20076;-74
2021/11/04 03:11:57;;;;;;;4.03;1.73;;;;;;;17.24;37.98;101711.19;5034959;28;20475;-75
2021/11/04 03:14:22;;;;;;;6.90;1.88;;;;;;;17.13;38.18;101711.56;5034921;28;20456;-75
2021/11/04 03:16:52;;;;;;;5.25;1.30;;;;;;;17.21;37.67;101723.72;5034828;28;20083;-74
2021/11/04 03:19:21;;;;;;;3.60;1.40;;;;;;;17.19;37.98;101721.28;5035085;28;20022;-75
2021/11/04 03:21:49;;;;;;;4.63;1.42;;;;;;;17.12;38.13;101721.00;5033795;28;20116;-74
2021/11/04 03:24:19;;;;;;;3.95;1.38;;;;;;;17.06;38.18;101722.31;5017023;28;20034;-74
2021/11/04 03:26:49;;;;;;;4.95;1.40;;;;;;;17.14;38.06;101724.22;5034728;28;20053;-75
2021/11/04 03:29:16;;;;;;;9.32;3.08;;;;;;;17.08;38.23;101719.25;5034670;28;20415;-74
2021/11/04 03:31:44;;;;;;;4.90;1.25;;;;;;;17.17;37.65;101723.59;5016894;28;20029;-75
2021/11/04 03:34:10;;;;;;;5.05;1.45;;;;;;;17.17;37.77;101718.06;5034563;28;20026;-75
2021/11/04 03:36:37;;;;;;;9.45;2.75;;;;;;;17.08;38.11;101714.53;5016758;28;20637;-75
2021/11/04 03:39:05;;;;;;;4.85;1.17;;;;;;;16.84;38.28;101722.59;5034489;28;20148;-74
2021/11/04 03:41:32;;;;;;;20.55;4.13;;;;;;;16.76;38.62;101717.94;5034222;28;20033;-76
2021/11/04 03:43:58;;;;;;;6.65;1.70;;;;;;;16.75;38.67;101725.41;5034706;28;20498;-76
2021/11/04 03:46:25;;;;;;;6.13;2.30;;;;;;;16.62;38.88;101727.22;5034036;28;20017;-77
2021/11/04 03:48:52;;;;;;;5.05;1.13;;;;;;;16.35;39.22;101719.34;5034315;28;20029;-77
2021/11/04 03:51:21;;;;;;;5.78;1.15;;;;;;;16.74;38.20;101728.50;5034256;28;20450;-77
2021/11/04 03:53:47;;;;;;;8.23;2.17;;;;;;;16.74;38.35;101725.72;5034190;28;20026;-76
2021/11/04 03:56:14;;;;;;;3.97;1.40;;;;;;;16.79;38.25;101733.84;5034114;28;20492;-76
2021/11/04 03:58:41;;;;;;;2.80;1.20;;;;;;;16.80;38.56;101725.22;5034157;28;20383;-77
2021/11/04 04:01:07;;;;;;;3.45;1.30;;;;;;;16.79;38.59;101733.84;5034039;28;20108;-76
2021/11/04 04:03:33;;;;;;;5.13;1.45;;;;;;;16.99;38.38;101746.88;5033371;28;20560;-78
2021/11/04 04:06:06;;;;;;;5.53;1.45;;;;;;;17.09;37.96;101748.47;5016253;28;20037;-77
2021/11/04 04:08:34;;;;;;;6.90;1.75;;;;;;;17.05;38.16;101753.84;5033328;28;20037;-78
2021/11/04 04:11:00;;;;;;;3.80;1.60;;;;;;;17.08;38.28;101753.19;5013353;28;20043;-77
2021/11/04 04:13:26;;;;;;;6.18;1.55;;;;;;;17.14;38.24;101751.84;5033857;28;20503;-76
2021/11/04 04:15:51;;;;;;;7.95;1.50;;;;;;;17.16;38.19;101765.34;5033780;28;20113;-78
2021/11/04 04:18:17;;;;;;;3.60;1.75;;;;;;;17.07;38.28;101759.84;5033623;28;20480;-78
2021/11/04 04:20:43;;;;;;;4.78;1.48;;;;;;;16.82;38.71;101769.84;5033554;28;20036;-77
2021/11/04 04:23:09;;;;;;;3.05;1.30;;;;;;;16.60;39.17;101770.06;5033337;28;20041;-77
2021/11/04 04:25:34;;;;;;;10.05;1.83;;;;;;;16.92;38.54;101761.19;5033509;28;20033;-77
2021/11/04 04:28:00;;;;;;;9.70;1.60;;;;;;;16.89;38.01;101769.34;5033403;28;20025;-77
2021/11/04 04:30:26;;;;;;;6.68;1.45;;;;;;;16.94;38.29;101768.38;5033476;28;20029;-77
2021/11/04 04:32:52;;;;;;;3.28;1.13;;;;;;;16.92;38.38;101772.25;5032870;28;20037;-77
2021/11/04 04:35:18;;;;;;;3.63;1.45;;;;;;;16.98;38.16;101772.06;5032933;28;20029;-77
2021/11/04 04:37:44;;;;;;;6.47;1.58;;;;;;;17.00;38.12;101767.81;5033343;28;20039;-77
2021/11/04 04:40:09;;;;;;;4.07;1.23;;;;;;;17.00;37.99;101772.53;5033281;28;20505;-76
2021/11/04 04:42:37;;;;;;;5.68;1.40;;;;;;;16.96;38.12;101772.41;5015408;28;20491;-76
2021/11/04 04:45:04;;;;;;;10.52;2.00;;;;;;;16.80;38.60;101776.84;5033194;28;20028;-77
2021/11/04 04:47:30;;;;;;;11.50;1.83;;;;;;;16.90;38.26;101785.56;5033190;28;20026;-76
2021/11/04 04:49:58;;;;;;;3.08;1.60;;;;;;;16.81;38.22;101787.56;5033074;28;20033;-76
2021/11/04 04:52:25;;;;;;;2.35;1.40;;;;;;;16.83;38.20;101799.06;5033094;28;20120;-78
2021/11/04 04:54:50;;;;;;;3.08;1.40;;;;;;;16.96;38.34;101793.69;5033047;28;20056;-77
2021/11/04 04:57:22;;;;;;;4.13;1.50;;;;;;;17.00;38.18;101795.44;5032796;28;20026;-76
2021/11/04 04:59:48;;;;;;;6.63;1.45;;;;;;;16.98;38.13;101786.69;5031254;28;20021;-76
2021/11/04 05:02:14;;;;;;;4.38;1.40;;;;;;;17.07;38.16;101795.72;5031827;28;20025;-76
2021/11/04 05:04:40;;;;;;;3.08;1.25;;;;;;;17.14;38.11;101800.75;5032923;28;20554;-76
2021/11/04 05:07:05;;;;;;;4.70;1.15;;;;;;;17.20;38.05;101797.47;5032850;28;20029;-76
2021/11/04 05:09:31;;;;;;;6.40;1.13;;;;;;;17.22;38.34;101799.09;5032843;28;20068;-76
2021/11/04 05:11:56;;;;;;;5.57;1.63;;;;;;;17.20;38.37;101799.41;5032737;28;20356;-76
2021/11/04 05:14:22;;;;;;;6.00;1.20;;;;;;;17.24;38.20;101796.81;5032688;28;20026;-76
2021/11/04 05:16:47;;;;;;;3.25;1.10;;;;;;;17.29;38.21;101811.22;5032703;28;20112;-76
2021/11/04 05:19:13;;;;;;;4.75;1.25;;;;;;;17.35;38.20;101817.38;5032746;28;20049;-76
2021/11/04 05:21:39;;;;;;;3.65;1.23;;;;;;;17.37;38.12;101809.56;5032351;28;20025;-76
2021/11/04 05:24:07;;;;;;;7.88;1.40;;;;;;;17.32;38.19;101813.34;5032671;28;20029;-76
2021/11/04 05:26:34;;;;;;;5.53;1.80;;;;;;;17.42;38.20;101814.91;5032638;28;20510;-76
2021/11/04 05:29:00;;;;;;;3.58;1.20;;;;;;;17.46;38.10;101813.13;5014724;28;20029;-76
2021/11/04 05:31:25;;;;;;;10.50;1.67;;;;;;;17.40;38.31;101831.03;5014772;28;20459;-76
2021/11/04 05:33:53;;;;;;;5.80;1.58;;;;;;;17.46;38.04;101827.75;5014395;28;20108;-76
2021/11/04 05:36:23;;;;;;;5.35;1.45;;;;;;;17.43;37.89;101836.69;5032431;28;20108;-76
2021/11/04 05:38:49;;;;;;;11.23;2.20;;;;;;;17.44;38.24;101834.72;5014722;28;20025;-77
2021/11/04 05:41:14;;;;;;;4.97;1.80;;;;;;;17.48;38.18;101832.94;5032279;28;20116;-76
2021/11/04 05:43:40;;;;;;;8.55;2.05;;;;;;;17.30;38.40;101834.94;5032397;28;20108;-77
2021/11/04 05:46:06;;;;;;;16.60;3.95;;;;;;;17.37;38.42;101843.53;5037819;28;20472;-77
2021/11/04 05:48:31;;;;;;;6.60;2.38;;;;;;;17.47;38.15;101842.38;5039029;28;20025;-76
2021/11/04 05:50:57;;;;;;;3.10;1.00;;;;;;;17.50;38.10;101847.22;5039024;28;20614;-76
2021/11/04 05:53:23;;;;;;;5.97;1.92;;;;;;;17.39;38.26;101837.69;5039005;28;20394;-76
2021/11/04 05:55:50;;;;;;;7.57;2.05;;;;;;;17.36;38.51;101838.34;5038937;28;20026;-76
2021/11/04 05:58:17;;;;;;;6.85;1.45;;;;;;;17.39;38.43;101845.97;5038910;28;20021;-76
2021/11/04 06:00:42;;;;;;;4.22;1.42;;;;;;;17.25;38.46;101856.44;5038758;28;20066;-76
2021/11/04 06:03:08;;;;;;;5.10;1.52;;;;;;;17.38;38.21;101842.41;5038818;28;20025;-76
2021/11/04 06:05:33;;;;;;;8.73;2.20;;;;;;;17.48;38.15;101846.75;5038850;28;20017;-76
2021/11/04 06:07:59;;;;;;;5.10;2.55;;;;;;;17.52;37.98;101855.97;5038741;28;20601;-78
2021/11/04 06:10:25;;;;;;;4.60;1.27;;;;;;;17.48;38.13;101852.28;5038822;28;20492;-76
2021/11/04 06:12:50;;;;;;;3.13;1.13;;;;;;;17.23;38.35;101858.69;5038717;28;20029;-76
2021/11/04 06:15:16;;;;;;;4.38;1.00;;;;;;;17.37;38.26;101860.09;5020947;28;20498;-76
2021/11/04 06:17:42;;;;;;;7.03;1.10;;;;;;;17.42;38.11;101853.59;5038721;28;20021;-76
2021/11/04 06:20:08;;;;;;;5.35;1.27;;;;;;;17.50;37.89;101855.50;5038702;28;20553;-76
2021/11/04 06:22:34;;;;;;;6.57;1.15;;;;;;;17.47;37.96;101858.94;5038378;28;20050;-76
2021/11/04 06:25:00;;;;;;;2.92;0.85;;;;;;;17.09;38.37;101858.94;5038633;28;20056;-76
2021/11/04 06:27:25;;;;;;;1.25;0.63;;;;;;;17.60;37.58;101862.59;5038653;28;20057;-76
2021/11/04 06:29:51;;;;;;;2.40;0.90;;;;;;;17.56;37.59;101867.19;5038569;28;20036;-76
2021/11/04 06:32:21;;;;;;;7.82;1.25;;;;;;;17.40;38.06;101867.75;5038611;28;20036;-76
2021/11/04 06:34:47;;;;;;;4.72;1.02;;;;;;;17.48;37.84;101868.84;5038560;28;20076;-76
2021/11/04 06:37:13;;;;;;;4.57;1.38;;;;;;;17.49;37.66;101876.00;5038542;28;20407;-76
2021/11/04 06:39:39;;;;;;;5.88;0.98;;;;;;;17.40;37.78;101875.22;5038517;28;20518;-76
2021/11/04 06:42:05;;;;;;;4.05;1.00;;;;;;;17.48;37.63;101877.13;5020678;28;20037;-76
2021/11/04 06:44:30;;;;;;;7.25;2.35;;;;;;;17.24;37.78;101876.91;5038411;28;20030;-76
2021/11/04 06:46:59;;;;;;;4.70;1.35;;;;;;;17.38;37.71;101874.72;5038431;28;20395;-76
2021/11/04 06:49:28;;;;;;;3.20;1.30;;;;;;;17.40;37.78;101887.09;5020645;28;20120;-76
2021/11/04 06:51:56;;;;;;;3.65;0.93;;;;;;;17.45;37.50;101883.31;5038387;28;20026;-75
2021/11/04 06:54:25;;;;;;;3.42;1.00;;;;;;;17.43;37.56;101891.13;5038356;28;20025;-76
2021/11/04 06:56:52;;;;;;;5.78;1.40;;;;;;;17.39;37.91;101882.72;5035719;28;20393;-76
2021/11/04 06:59:21;;;;;;;2.83;0.70;;;;;;;17.44;37.51;101882.50;5017203;28;20049;-75
2021/11/04 07:01:54;;;;;;;3.53;1.38;;;;;;;17.38;37.65;101892.13;5033577;28;20025;-75
2021/11/04 07:04:40;;;;;;;5.15;1.05;;;;;;;17.37;37.72;101893.25;5016418;28;20502;-75
2021/11/04 07:07:13;;;;;;;3.00;1.00;;;;;;;17.46;37.70;101896.00;5017274;28;20057;-76
2021/11/04 07:09:41;;;;;;;4.95;1.60;;;;;;;17.33;37.94;101888.75;5034892;28;20426;-75
2021/11/04 07:12:10;;;;;;;2.70;0.65;;;;;;;17.17;38.19;101897.56;5035256;28;20064;-75
2021/11/04 07:14:39;;;;;;;8.55;1.73;;;;;;;17.25;37.99;101901.44;5034856;28;20086;-75
2021/11/04 07:17:05;;;;;;;4.45;0.95;;;;;;;17.47;37.54;101901.19;5034892;28;20102;-77
2021/11/04 07:19:31;;;;;;;2.88;0.98;;;;;;;17.11;38.09;101900.84;5017115;28;20057;-76
2021/11/04 07:22:24;;;;;;;3.50;1.52;;;;;;;16.92;38.24;101907.50;5016775;28;20618;-76
2021/11/04 07:25:03;;;;;;;11.80;2.25;;;;;;;17.34;37.81;101910.50;5016915;28;20494;-76
2021/11/04 07:27:47;;;;;;;3.23;1.53;;;;;;;17.45;37.38;101910.94;5017040;28;20431;-75
2021/11/04 07:30:17;;;;;;;4.63;1.00;;;;;;;17.52;37.37;101914.00;5016834;28;20075;-76
2021/11/04 07:32:55;;;;;;;11.77;2.30;;;;;;;17.38;37.52;101921.69;5034654;28;20079;-75
2021/11/04 07:35:23;;;;;;;6.85;1.95;;;;;;;17.24;37.82;101924.69;5029978;28;20056;-75
2021/11/04 07:37:49;;;;;;;4.18;1.30;;;;;;;17.50;37.31;101927.34;5016567;28;20052;-76
2021/11/04 07:40:17;;;;;;;6.50;1.20;;;;;;;17.45;37.52;101927.53;5034493;28;20495;-76
2021/11/04 07:42:44;;;;;;;7.80;1.88;;;;;;;17.45;37.49;101944.91;5034397;28;20112;-74
2021/11/04 07:45:10;;;;;;;6.35;1.58;;;;;;;17.62;37.16;101929.44;5016652;28;20018;-76
2021/11/04 07:47:39;;;;;;;9.98;1.60;;;;;;;17.53;37.31;101934.97;5034371;28;20051;-76
2021/11/04 07:50:07;;;;;;;5.85;1.25;;;;;;;17.46;37.52;101937.47;5034463;28;20518;-76
2021/11/04 07:52:34;;;;;;;11.90;2.25;;;;;;;17.51;37.37;101945.53;5016464;28;20036;-75
2021/11/04 07:55:01;;;;;;;9.75;1.85;;;;;;;17.61;37.16;101947.97;5034203;28;20043;-76
2021/11/04 07:57:32;;;;;;;7.88;2.15;;;;;;;17.44;37.55;101953.53;5034121;28;20028;-76
2021/11/04 07:59:58;;;;;;;10.68;1.75;;;;;;;17.54;37.44;101958.72;5034066;28;20025;-77
2021/11/04 08:02:23;;;;;;;6.53;1.58;;;;;;;17.60;37.34;101962.91;5034012;28;20052;-78
2021/11/04 08:04:49;;;;;;;8.55;1.58;;;;;;;17.56;37.48;101966.66;5034088;28;20029;-75
2021/11/04 08:07:14;;;;;;;10.05;2.15;;;;;;;17.58;37.35;101967.94;5033839;28;20383;-75
2021/11/04 08:09:41;;;;;;;6.45;1.67;;;;;;;17.49;37.43;101967.19;5033939;28;20033;-76
2021/11/04 08:12:07;;;;;;;9.18;2.05;;;;;;;17.47;37.54;101980.53;5033916;28;20029;-76
2021/11/04 08:14:32;;;;;;;5.55;1.17;;;;;;;17.35;37.67;101983.94;5033901;28;20072;-75
2021/11/04 08:16:58;;;;;;;4.38;1.50;;;;;;;17.58;37.38;101979.00;5032299;28;21164;-76
2021/11/04 08:19:24;;;;;;;6.93;1.50;;;;;;;17.64;37.07;101982.41;5029726;28;20057;-79
2021/11/04 08:21:49;;;;;;;23.23;3.38;;;;;;;17.71;36.93;101975.25;5010871;28;20035;-79
2021/11/04 08:24:15;;;;;;;5.35;1.23;;;;;;;17.80;36.85;101977.97;5032918;28;20030;-76
2021/11/04 08:26:41;;;;;;;10.18;2.40;;;;;;;17.75;37.20;101983.69;5032197;28;20364;-76
2021/11/04 08:29:06;;;;;;;6.15;1.85;;;;;;;17.72;36.88;101978.81;5033535;28;20076;-76
2021/11/04 08:31:32;;;;;;;5.35;1.27;;;;;;;17.93;36.57;101982.47;5033385;28;20479;-76
2021/11/04 08:33:57;;;;;;;13.10;2.42;;;;;;;17.98;36.54;101978.69;5033414;28;20025;-76
2021/11/04 08:36:23;;;;;;;6.07;1.27;;;;;;;18.10;36.49;101987.09;5033311;28;20060;-76
2021/11/04 08:38:49;;;;;;;11.80;2.85;;;;;;;18.14;36.60;101990.03;5032416;28;20029;-76
2021/11/04 08:41:15;;;;;;;12.73;1.85;;;;;;;18.15;36.33;101989.69;5031363;28;20032;-76
2021/11/04 08:43:40;;;;;;;12.25;2.55;;;;;;;18.07;36.46;101993.31;5031267;28;20029;-76
2021/11/04 08:46:07;;;;;;;3.50;1.42;;;;;;;18.11;36.41;102002.53;5031439;28;20667;-75
2021/11/04 08:48:34;;;;;;;11.63;2.13;;;;;;;18.06;36.57;102004.69;5031166;28;20156;-76
2021/11/04 08:50:59;;;;;;;8.40;1.63;;;;;;;18.01;36.50;101998.22;5031404;28;20028;-76
2021/11/04 08:53:25;;;;;;;6.60;1.42;;;;;;;17.99;36.69;101991.41;5032839;28;20472;-78
2021/11/04 08:55:51;;;;;;;4.20;1.30;;;;;;;18.02;36.40;101994.31;5032931;28;20030;-78
2021/11/04 08:58:17;;;;;;;7.50;1.95;;;;;;;17.84;36.75;101994.72;5032508;28;20036;-76
2021/11/04 09:00:43;;;;;;;9.10;2.45;;;;;;;18.06;36.23;101997.22;5032542;28;20048;-77
2021/11/04 09:03:09;;;;;;;6.55;1.73;;;;;;;18.11;36.10;102002.53;5032529;28;20030;-76
2021/11/04 09:05:35;;;;;;;11.20;1.83;;;;;;;18.16;36.02;101996.84;5032852;28;20025;-78
2021/11/04 09:08:03;;;;;;;8.00;1.52;;;;;;;17.96;36.35;102001.16;5032827;28;20060;-76
2021/11/04 09:10:29;;;;;;;9.73;1.63;;;;;;;18.12;36.21;102003.34;5032800;28;20026;-78
2021/11/04 09:12:55;;;;;;;7.50;1.55;;;;;;;18.11;36.03;102004.50;5032672;28;20025;-78
2021/11/04 09:15:20;;;;;;;6.68;1.63;;;;;;;17.95;36.21;102012.56;5032311;28;20388;-77
2021/11/04 09:17:46;;;;;;;6.25;1.23;;;;;;;17.95;36.05;102012.56;5007015;28;20022;-76
2021/11/04 09:20:15;;;;;;;4.82;1.65;;;;;;;18.00;36.00;102021.50;5010640;28;20084;-76
2021/11/04 09:22:43;;;;;;;5.78;1.85;;;;;;;18.11;36.01;102030.22;5011697;28;20096;-76
2021/11/04 09:25:08;;;;;;;5.97;1.55;;;;;;;18.29;35.74;102029.00;4993996;28;20612;-76
2021/11/04 09:27:34;;;;;;;7.97;1.73;;;;;;;18.18;35.98;102033.25;5011690;28;20042;-76
2021/11/04 09:30:00;;;;;;;9.60;2.00;;;;;;;18.54;35.66;102031.94;5010950;28;20052;-76
2021/11/04 09:32:26;;;;;;;12.82;3.72;;;;;;;18.71;35.40;102031.81;5010916;28;20104;-76
2021/11/04 09:34:52;;;;;;;4.00;1.45;;;;;;;18.79;35.16;102047.56;5010872;28;20124;-77
2021/11/04 09:37:18;;;;;;;5.47;1.25;;;;;;;18.76;35.53;102039.94;5010778;28;20025;-76
2021/11/04 09:39:48;;;;;;;15.25;2.40;;;;;;;18.92;35.17;102044.88;5010812;28;20373;-76
2021/11/04 09:42:17;;;;;;;3.63;0.90;;;;;;;18.81;35.31;102050.78;5010798;28;20026;-76
2021/11/04 09:44:45;;;;;;;11.27;1.40;;;;;;;19.04;34.90;102045.75;5011827;28;20049;-76
2021/11/04 09:47:10;;;;;;;10.13;3.10;;;;;;;19.16;34.89;102045.00;5012411;28;20146;-76
2021/11/04 09:49:36;;;;;;;6.07;1.55;;;;;;;19.23;34.92;102050.78;5012306;28;20125;-76
2021/11/04 09:52:02;;;;;;;8.68;1.85;;;;;;;19.23;34.58;102042.47;5012521;28;20487;-77
2021/11/04 09:54:27;;;;;;;13.13;1.73;;;;;;;19.24;34.51;102055.19;5012590;28;20030;-76
2021/11/04 09:56:53;;;;;;;9.40;1.63;;;;;;;19.20;34.42;102050.69;5012540;28;20029;-76
2021/11/04 09:59:19;;;;;;;14.50;2.00;;;;;;;19.17;34.43;102049.38;5012377;28;20034;-76
2021/11/04 10:01:47;;;;;;;10.27;1.73;;;;;;;19.06;34.23;102050.94;5012422;28;20476;-76
2021/11/04 10:04:13;;;;;;;12.07;1.65;;;;;;;19.19;34.13;102060.91;5012346;28;20029;-75
2021/11/04 10:06:39;;;;;;;8.38;1.45;;;;;;;19.25;34.05;102056.78;5012463;28;20037;-77
2021/11/04 10:09:10;;;;;;;6.40;1.67;;;;;;;18.95;34.46;102058.03;5012342;28;20029;-76
2021/11/04 10:11:43;;;;;;;3.60;1.50;;;;;;;18.78;34.66;102061.75;5016774;28;20422;-77
2021/11/04 10:14:20;;;;;;;6.63;1.48;;;;;;;18.72;34.83;102052.00;5032217;28;20114;-76
2021/11/04 10:16:45;;;;;;;6.05;1.77;;;;;;;18.91;34.25;102065.41;5032114;28;20092;-78
2021/11/04 10:19:16;;;;;;;13.63;2.67;;;;;;;18.88;34.33;102069.66;5016838;28;20488;-77
2021/11/04 10:21:45;;;;;;;11.35;1.45;;;;;;;18.80;34.68;102057.50;5012065;28;20049;-76
2021/11/04 10:24:23;;;;;;;7.68;2.92;;;;;;;18.86;34.10;102058.09;5012026;28;20030;-76
2021/11/04 10:26:54;;;;;;;9.95;1.75;;;;;;;18.92;34.38;102061.50;5012324;28;20392;-75
2021/11/04 10:29:21;;;;;;;3.50;1.20;;;;;;;18.95;34.22;102066.34;5012211;28;20439;-76
2021/11/04 10:31:49;;;;;;;3.45;1.25;;;;;;;18.85;34.33;102065.59;5012954;28;20476;-76
2021/11/04 10:34:25;;;;;;;8.30;1.40;;;;;;;18.93;34.18;102071.41;5015851;28;20033;-76
2021/11/04 10:36:51;;;;;;;4.10;0.90;;;;;;;18.89;34.08;102059.38;5015890;28;20112;-76
2021/11/04 10:39:17;;;;;;;7.68;1.50;;;;;;;18.93;34.20;102061.16;5015513;28;20050;-76
2021/11/04 10:41:44;;;;;;;11.00;1.88;;;;;;;19.28;33.61;102058.91;5015240;28;20029;-76
2021/11/04 10:44:16;;;;;;;9.68;2.00;;;;;;;19.24;33.86;102057.94;5014055;28;20473;-76
2021/11/04 10:46:46;;;;;;;10.82;1.40;;;;;;;19.23;33.72;102048.03;5000595;28;20037;-75
2021/11/04 10:49:12;;;;;;;9.23;1.38;;;;;;;19.14;33.81;102058.38;5032493;28;20025;-76
2021/11/04 10:51:38;;;;;;;5.78;1.55;;;;;;;19.60;33.13;102048.19;5035001;28;20057;-76
2021/11/04 10:54:09;;;;;;;4.22;1.40;;;;;;;19.27;33.02;102046.19;5035338;28;20028;-77
2021/11/04 10:56:39;;;;;;;7.20;1.75;;;;;;;19.39;32.90;102051.78;5035257;28;20026;-77
2021/11/04 10:59:17;;;;;;;13.25;2.08;;;;;;;19.22;32.97;102049.16;5034138;28;20021;-78
2021/11/04 11:01:51;;;;;;;10.52;2.17;;;;;;;19.54;32.68;102060.59;5017145;28;20503;-77
2021/11/04 11:04:23;;;;;;;5.45;1.63;;;;;;;19.50;32.90;102059.69;5034915;28;20376;-77
2021/11/04 11:06:54;;;;;;;17.17;2.70;;;;;;;19.35;32.48;102050.84;5035021;28;20034;-77
2021/11/04 11:09:26;;;;;;;8.13;1.63;;;;;;;19.72;32.30;102048.19;5031744;28;20057;-76
2021/11/04 11:11:54;;;;;;;15.80;3.50;;;;;;;19.55;32.55;102049.16;5018625;28;20028;-75
2021/11/04 11:14:24;;;;;;;10.30;2.65;;;;;;;19.48;32.35;102061.97;5017437;28;20035;-76
2021/11/04 11:16:54;;;;;;;5.93;1.42;;;;;;;19.35;32.69;102050.84;4999914;28;20130;-75
2021/11/04 11:19:21;;;;;;;7.53;1.50;;;;;;;19.41;32.69;102049.47;5000570;28;20037;-76
2021/11/04 11:21:51;;;;;;;8.95;1.70;;;;;;;19.62;32.25;102051.41;5015563;28;20033;-75
2021/11/04 11:24:20;;;;;;;5.00;1.65;;;;;;;19.70;32.52;102044.97;5014883;28;20400;-74
2021/11/04 11:26:46;;;;;;;6.70;1.60;;;;;;;19.70;32.63;102042.19;5015329;28;20440;-75